WetterOnline ( https://www.wetteronline.de )

Wetter aktuell Bremen

Aktuelles Wetter: Bremen/Flughafen (5m)

6-stündlich | Neueste Meldungen
Ortszeit Temperatur Wetter
Fr, 19.08. 14:00 25.5° C leicht bewölkt
Fr, 19.08. 8:00 15.3° C bewölkt
Fr, 19.08. 2:00 16.6° C bewölkt
Do, 18.08. 20:00 21.1° C wolkig
Do, 18.08. 14:00 23.3° C bewölkt
Do, 18.08. 8:00 19.1° C bedeckt
Do, 18.08. 2:00 18.8° C wolkig
Mi, 17.08. 20:00 23.8° C bedeckt
Ortszeit Temperatur Wetter
Fr, 19.08. 19:00 25.7° C fast wolkenlos
Fr, 19.08. 18:50 25.7° C fast wolkenlos
Fr, 19.08. 18:40 25.7° C wolkenlos
Fr, 19.08. 18:30 26.6° C fast wolkenlos
Fr, 19.08. 18:20 26.6° C fast wolkenlos
Fr, 19.08. 18:10 26.5° C leicht bewölkt
Fr, 19.08. 18:00 26.1° C leicht bewölkt
Fr, 19.08. 17:30 26.4° C wolkig
Fr, 19.08. 17:00 26.5° C fast wolkenlos
Fr, 19.08. 16:30 26.4° C wolkenlos
Fr, 19.08. 16:00 25.7° C wolkenlos
Fr, 19.08. 15:30 26.3° C leicht bewölkt
Ortszeit Relative Feuchte Sichtweite
Fr, 19.08. 14:00 42% >70 km
Fr, 19.08. 8:00 96% 9 km
Fr, 19.08. 2:00 94% 23 km
Do, 18.08. 20:00 72% 40 km
Do, 18.08. 14:00 68% 40 km
Do, 18.08. 8:00 88% 14 km
Do, 18.08. 2:00 92% 24 km
Mi, 17.08. 20:00 60% 55 km
Ortszeit Relative Feuchte Sichtweite
Fr, 19.08. 19:00 44% 65 km
Fr, 19.08. 18:50 44% -
Fr, 19.08. 18:40 45% -
Fr, 19.08. 18:30 41% 60 km
Fr, 19.08. 18:20 41% -
Fr, 19.08. 18:10 41% -
Fr, 19.08. 18:00 39% 60 km
Fr, 19.08. 17:30 39% 55 km
Fr, 19.08. 17:00 40% >70 km
Fr, 19.08. 16:30 40% 60 km
Fr, 19.08. 16:00 40% 65 km
Fr, 19.08. 15:30 38% >70 km
Ortszeit Niederschlagsmenge Niederschlagsart
Fr, 19.08. 14:00 0.0 l/m2 in 6 Std. -
Fr, 19.08. 8:00 0.0 l/m2 in 12 Std. -
Fr, 19.08. 2:00 0.0 l/m2 in 6 Std. -
Do, 18.08. 20:00 0.0 l/m2 in 12 Std. -
Do, 18.08. 14:00 0.0 l/m2 in 6 Std. -
Do, 18.08. 8:00 0.1 l/m2 in 12 Std. -
Do, 18.08. 2:00 0.1 l/m2 in 6 Std. Regen
Mi, 17.08. 20:00 0.0 l/m2 in 12 Std. -
Ortszeit Niederschlagsmenge Niederschlagsart
Fr, 19.08. 19:00 0.0 l/m2 in 1 Std. -
Fr, 19.08. 18:50 keine Meldung -
Fr, 19.08. 18:40 keine Meldung -
Fr, 19.08. 18:30 0.0 l/m2 in 1 Std. -
Fr, 19.08. 18:20 keine Meldung -
Fr, 19.08. 18:10 keine Meldung -
Fr, 19.08. 18:00 0.1 l/m2 in 1 Std. Niederschlag
Fr, 19.08. 17:30 0.1 l/m2 in 1 Std. Regen
Fr, 19.08. 17:00 0.0 l/m2 in 1 Std. -
Fr, 19.08. 16:30 0.0 l/m2 in 1 Std. -
Fr, 19.08. 16:00 0.0 l/m2 in 1 Std. -
Fr, 19.08. 15:30 0.0 l/m2 in 1 Std. -
Ortszeit Stärke Spitze Richtung
km/h Bft. km/h Grad Sektor
Fr, 19.08. 14:00 13 3 26 280° W
Fr, 19.08. 8:00 6 1 17 260° W
Fr, 19.08. 2:00 11 2 25 300° NW
Do, 18.08. 20:00 19 3 33 330° NW
Do, 18.08. 14:00 22 4 30 300° NW
Do, 18.08. 8:00 13 3 26 260° W
Do, 18.08. 2:00 6 1 19 90° O
Mi, 17.08. 20:00 13 3 39 90° O
Ortszeit Stärke Spitze Richtung
km/h Bft. km/h Grad Sektor
Fr, 19.08. 19:00 11 2 25 310° NW
Fr, 19.08. 18:50 11 2 - 310° NW
Fr, 19.08. 18:40 11 2 - 320° NW
Fr, 19.08. 18:30 7 2 22 320° NW
Fr, 19.08. 18:20 7 2 - 320° NW
Fr, 19.08. 18:10 7 2 - 350° N
Fr, 19.08. 18:00 9 2 30 310° NW
Fr, 19.08. 17:30 18 3 29 300° NW
Fr, 19.08. 17:00 22 4 32 290° W
Fr, 19.08. 16:30 22 4 32 290° W
Fr, 19.08. 16:00 14 3 32 320° NW
Fr, 19.08. 15:30 14 3 29 290° W
Ortszeit Untergrenze Bedeckung Gattung
total tief tief mittel hoch
Fr, 19.08. 14:00 8100 m 7/8 0/8 - - -
Fr, 19.08. 8:00 480 m 8/8 7/8 - - -
Fr, 19.08. 2:00 630 m 8/8 7/8 - - -
Do, 18.08. 20:00 630 m 8/8 5/8 - - -
Do, 18.08. 14:00 840 m 7/8 7/8 - - -
Do, 18.08. 8:00 330 m 8/8 8/8 - - -
Do, 18.08. 2:00 3300 m 7/8 5/8 - - -
Mi, 17.08. 20:00 3000 m 8/8 8/8 - - -
Ortszeit Bedeckungsgrad in Achtel und Wolkenuntergrenze
Fr, 19.08. 19:00 2(12000m)
Fr, 19.08. 18:50 2(12000m)
Fr, 19.08. 18:40 keine Wolken
Fr, 19.08. 18:30 2(12000m)
Fr, 19.08. 18:20 2(12000m)
Fr, 19.08. 18:10 3
Fr, 19.08. 18:00 1(8400m) 6(12000m)
Fr, 19.08. 17:30 6(8700m) 7(10500m)
Fr, 19.08. 17:00 1(10500m)
Fr, 19.08. 16:30 keine Wolken
Fr, 19.08. 16:00 keine Wolken
Fr, 19.08. 15:30 6(8100m) 6(8700m)
Ortszeit Luftdruck NN (hPa) Tendenz (hPa in 3 Std.)
Fr, 19.08. 14:00 1013 - 0,9
Fr, 19.08. 8:00 1013 + 0,5
Fr, 19.08. 2:00 1013 + 0,1
Do, 18.08. 20:00 1013 + 0,2
Do, 18.08. 14:00 1013 0,0
Do, 18.08. 8:00 1012 + 0,6
Do, 18.08. 2:00 1011 + 0,4
Mi, 17.08. 20:00 1010 + 0,2
Ortszeit Luftdruck NN (hPa) Tendenz (hPa in 3 Std.)
Fr, 19.08. 19:00 1013 + 0,2
Fr, 19.08. 18:50 1013 keine Meldung
Fr, 19.08. 18:40 1013 keine Meldung
Fr, 19.08. 18:30 1013 - 0,2
Fr, 19.08. 18:20 1013 keine Meldung
Fr, 19.08. 18:10 1013 keine Meldung
Fr, 19.08. 18:00 1013 - 0,2
Fr, 19.08. 17:30 1013 - 0,3
Fr, 19.08. 17:00 1013 - 0,6
Fr, 19.08. 16:30 1013 - 1,0
Fr, 19.08. 16:00 1013 - 0,8
Fr, 19.08. 15:30 1013 - 0,7
Ortszeit Schneehöhe (cm)
Fr, 19.08. 14:00 -
Fr, 19.08. 8:00 -
Fr, 19.08. 2:00 -
Do, 18.08. 20:00 -
Do, 18.08. 14:00 -
Do, 18.08. 8:00 -
Do, 18.08. 2:00 -
Mi, 17.08. 20:00 -
Ortszeit Schneehöhe (cm)
Fr, 19.08. 19:00 -
Fr, 19.08. 18:50 -
Fr, 19.08. 18:40 -
Fr, 19.08. 18:30 -
Fr, 19.08. 18:20 -
Fr, 19.08. 18:10 -
Fr, 19.08. 18:00 -
Fr, 19.08. 17:30 -
Fr, 19.08. 17:00 -
Fr, 19.08. 16:30 -
Fr, 19.08. 16:00 -
Fr, 19.08. 15:30 -
Link zu dieser Seite / Seite empfehlen

Das Wetter in ...